NY38 weather

Mc Bride's Airport
Gorham, New York, United States

Public forecast

Using degrees Fahrenheit for public forecast. Weather courtesy of forecast.io.

METAR (pilot weather report)

Closest report is Penn Yan Airport, 13.3 nm (24.7 km) SSE. Retrieved 2019/05/25 05:53 UTC (38 minutes ago):

KPEO 250553Z AUTO 00000KT 10SM CLR 09/07 A3016 RMK AO2 SLP213 T00890072 10167 20083 58002

TAF (pilot weather forecast)

Closest forecast is Greater Rochester International Airport, 28.9 nm (53.5 km) WNW. Retrieved 2019/05/25 06:42 UTC (0 seconds ago):

TAF KROC 250539Z 2506/2606 15005KT P6SM BKN150 FM251300 18008KT P6SM VCTS BKN060CB FM251800 19012G20KT P6SM -SHRA VCTS OVC050CB FM252100 21012G20KT 6SM -TSRA OVC040CB FM260000 23010KT P6SM BKN040